createdAt,value
2022-11-19T00:01:27.277Z,10.27
2022-11-19T00:03:54.136Z,11.07
2022-11-19T00:06:25.211Z,12.88
2022-11-19T00:08:52.028Z,10.70
2022-11-19T00:11:28.105Z,14.10
2022-11-19T00:13:54.714Z,12.82
2022-11-19T00:16:21.410Z,17.60
2022-11-19T00:18:48.107Z,15.07
2022-11-19T00:21:14.970Z,13.80
2022-11-19T00:23:41.623Z,15.52
2022-11-19T00:26:12.804Z,21.83
2022-11-19T00:28:39.572Z,14.45
2022-11-19T00:31:13.134Z,13.57
2022-11-19T00:33:40.395Z,17.38
2022-11-19T00:36:08.737Z,22.52
2022-11-19T00:38:35.421Z,19.52
2022-11-19T00:41:02.172Z,23.58
2022-11-19T00:43:28.960Z,18.65
2022-11-19T00:45:55.631Z,20.92
2022-11-19T00:48:22.321Z,22.08
2022-11-19T00:50:49.034Z,23.88
2022-11-19T00:53:15.690Z,27.73
2022-11-19T00:55:42.316Z,26.98
2022-11-19T00:58:08.969Z,25.88
2022-11-19T01:00:35.620Z,25.08
2022-11-19T01:03:02.313Z,29.88
2022-11-19T01:05:29.023Z,27.48
2022-11-19T01:07:55.656Z,24.42
2022-11-19T01:10:22.287Z,18.08
2022-11-19T01:12:49.060Z,27.50
2022-11-19T01:15:15.706Z,26.17
2022-11-19T01:17:42.347Z,27.48
2022-11-19T01:20:09.623Z,22.73
2022-11-19T01:22:36.251Z,26.30
2022-11-19T01:25:02.999Z,21.83
2022-11-19T01:27:29.599Z,24.38
2022-11-19T01:29:56.273Z,23.30
2022-11-19T01:32:22.897Z,23.23
2022-11-19T01:34:49.491Z,23.90
2022-11-19T01:37:16.103Z,18.73
2022-11-19T01:39:42.781Z,19.48
2022-11-19T01:42:19.731Z,24.90
2022-11-19T01:45:24.752Z,26.20
2022-11-19T01:47:52.667Z,21.73
2022-11-19T01:50:19.701Z,21.67
2022-11-19T01:52:46.456Z,23.25
2022-11-19T01:55:13.296Z,17.98
2022-11-19T01:57:39.992Z,21.50
2022-11-19T02:00:07.305Z,22.65
2022-11-19T02:02:44.279Z,20.48
2022-11-19T02:05:11.027Z,21.52
2022-11-19T02:07:37.752Z,22.98
2022-11-19T02:10:04.730Z,20.15
2022-11-19T02:12:55.994Z,22.88
2022-11-19T02:15:22.712Z,27.90
2022-11-19T02:18:05.318Z,23.42
2022-11-19T02:21:04.896Z,24.35
2022-11-19T02:23:53.041Z,22.63
2022-11-19T02:26:42.665Z,29.20
2022-11-19T02:29:27.434Z,30.58
2022-11-19T02:32:03.185Z,25.42
2022-11-19T02:34:46.395Z,26.80
2022-11-19T02:37:40.460Z,27.13
2022-11-19T02:40:14.638Z,26.25
2022-11-19T02:43:15.248Z,24.63
2022-11-19T02:45:57.260Z,24.15
2022-11-19T02:48:35.826Z,20.23
2022-11-19T02:51:03.461Z,26.13
2022-11-19T02:53:30.276Z,17.38
2022-11-19T02:55:56.888Z,21.67
2022-11-19T02:58:23.495Z,20.50
2022-11-19T03:00:50.090Z,20.15
2022-11-19T03:03:20.047Z,22.45
2022-11-19T03:05:50.280Z,17.48
2022-11-19T03:08:17.119Z,17.95
2022-11-19T03:10:46.697Z,17.40
2022-11-19T03:13:26.295Z,17.10
2022-11-19T03:15:55.536Z,14.57
2022-11-19T03:18:33.510Z,15.27
2022-11-19T03:21:21.003Z,19.00
2022-11-19T03:23:57.737Z,14.45
2022-11-19T03:26:29.636Z,15.98
2022-11-19T03:28:57.333Z,16.13
2022-11-19T03:31:24.469Z,19.58
2022-11-19T03:33:52.365Z,18.77
2022-11-19T03:36:21.903Z,20.77
2022-11-19T03:38:50.640Z,19.52
2022-11-19T03:41:18.362Z,18.75
2022-11-19T03:43:51.416Z,20.70
2022-11-19T03:46:18.324Z,22.77
2022-11-19T03:48:46.318Z,20.38
2022-11-19T03:51:30.770Z,24.02
2022-11-19T03:53:57.381Z,24.95
2022-11-19T03:56:24.518Z,24.70
2022-11-19T03:58:52.406Z,26.33
2022-11-19T04:01:19.202Z,23.40
2022-11-19T04:03:45.924Z,22.50
2022-11-19T04:06:13.937Z,23.25
2022-11-19T04:08:41.745Z,21.88
2022-11-19T04:13:33.999Z,22.05
2022-11-19T04:16:00.600Z,25.63
2022-11-19T04:18:27.381Z,23.67
2022-11-19T04:20:54.002Z,23.63
2022-11-19T04:23:20.639Z,21.38
2022-11-19T04:25:47.328Z,20.90
2022-11-19T04:28:14.012Z,20.67
2022-11-19T04:30:40.636Z,20.20
2022-11-19T04:33:07.322Z,21.23
2022-11-19T04:35:34.019Z,20.92
2022-11-19T04:38:00.658Z,18.65
2022-11-19T04:40:27.351Z,21.48
2022-11-19T04:42:53.958Z,21.55
2022-11-19T04:45:20.588Z,22.60
2022-11-19T04:47:47.233Z,21.15
2022-11-19T04:50:13.878Z,20.95
2022-11-19T04:52:41.469Z,18.35
2022-11-19T04:55:09.281Z,14.77
2022-11-19T04:57:35.993Z,15.00
2022-11-19T05:00:02.792Z,14.23
2022-11-19T05:02:29.467Z,13.75
2022-11-19T05:04:56.153Z,15.23
2022-11-19T05:07:22.892Z,16.58
2022-11-19T05:09:49.530Z,17.30
2022-11-19T05:12:16.189Z,20.58
2022-11-19T05:14:42.807Z,20.70
2022-11-19T05:17:09.459Z,20.13
2022-11-19T05:19:36.125Z,20.23
2022-11-19T05:22:02.783Z,21.13
2022-11-19T05:24:29.389Z,24.23
2022-11-19T05:26:55.981Z,25.05
2022-11-19T05:29:22.651Z,21.23
2022-11-19T05:31:49.312Z,21.52
2022-11-19T05:34:15.953Z,23.70
2022-11-19T05:36:42.594Z,23.02
2022-11-19T05:39:09.338Z,19.85
2022-11-19T05:41:35.987Z,19.23
2022-11-19T05:44:02.833Z,22.40
2022-11-19T05:46:29.518Z,22.50
2022-11-19T05:48:56.183Z,26.00
2022-11-19T05:51:22.901Z,24.50
2022-11-19T05:53:49.633Z,27.73
2022-11-19T05:56:16.280Z,29.33
2022-11-19T05:58:42.862Z,31.35
2022-11-19T06:01:09.605Z,26.33
2022-11-19T06:03:36.213Z,26.30
2022-11-19T06:06:02.861Z,25.40
2022-11-19T06:08:29.513Z,29.13
2022-11-19T06:10:56.147Z,27.40
2022-11-19T06:13:22.894Z,25.73
2022-11-19T06:15:49.545Z,26.02
2022-11-19T06:18:16.163Z,26.40
2022-11-19T06:20:42.767Z,26.83
2022-11-19T06:23:09.477Z,30.50
2022-11-19T06:25:36.087Z,27.55
2022-11-19T06:28:02.791Z,31.20
2022-11-19T06:30:29.589Z,30.92
2022-11-19T06:32:56.320Z,32.00
2022-11-19T06:35:23.413Z,33.00
2022-11-19T06:37:50.071Z,31.60
2022-11-19T06:40:18.790Z,34.58
2022-11-19T06:42:49.752Z,33.17
2022-11-19T06:45:17.678Z,36.13
2022-11-19T06:47:46.313Z,37.70
2022-11-19T06:50:12.972Z,37.53
2022-11-19T06:52:39.655Z,36.95
2022-11-19T06:55:06.512Z,35.30
2022-11-19T06:57:33.228Z,37.00
2022-11-19T06:59:59.849Z,45.03
2022-11-19T07:02:26.547Z,37.78
2022-11-19T07:04:53.214Z,40.75
2022-11-19T07:07:20.205Z,39.40
2022-11-19T07:09:46.914Z,40.33
2022-11-19T07:12:14.265Z,41.78
2022-11-19T07:14:40.959Z,42.22
2022-11-19T07:17:07.629Z,42.65
2022-11-19T07:19:34.306Z,42.75
2022-11-19T07:22:01.015Z,43.25
2022-11-19T07:24:27.602Z,41.13
2022-11-19T07:26:55.484Z,44.53
2022-11-19T07:29:22.616Z,46.10
2022-11-19T07:31:49.407Z,43.20
2022-11-19T07:34:16.216Z,47.05
2022-11-19T07:36:42.874Z,43.03
2022-11-19T07:39:09.717Z,46.58
2022-11-19T07:41:36.470Z,48.20
2022-11-19T07:44:03.582Z,45.00
2022-11-19T07:46:30.340Z,51.03
2022-11-19T07:48:57.451Z,43.80
2022-11-19T07:51:24.430Z,48.03
2022-11-19T07:53:51.461Z,52.03
2022-11-19T07:56:18.616Z,48.92
2022-11-19T07:58:45.496Z,51.28
2022-11-19T08:01:14.135Z,51.42
2022-11-19T08:03:40.888Z,51.58
2022-11-19T08:06:07.908Z,45.80
2022-11-19T08:08:34.672Z,49.50
2022-11-19T08:11:05.618Z,50.53
2022-11-19T08:13:32.929Z,46.42
2022-11-19T08:16:05.606Z,45.53
2022-11-19T08:18:32.439Z,48.45
2022-11-19T08:21:09.940Z,49.75
2022-11-19T08:23:38.316Z,53.58
2022-11-19T08:26:06.724Z,50.15
2022-11-19T08:28:33.453Z,45.85
2022-11-19T08:31:09.375Z,45.10
2022-11-19T08:33:36.294Z,54.78
2022-11-19T08:36:03.310Z,51.42
2022-11-19T08:38:33.316Z,52.97
2022-11-19T08:41:02.605Z,50.08
2022-11-19T08:43:29.273Z,53.97
2022-11-19T08:45:55.894Z,55.00
2022-11-19T08:48:22.625Z,54.80
2022-11-19T08:50:51.792Z,52.70
2022-11-19T08:53:18.500Z,54.80
2022-11-19T08:55:50.991Z,49.95
2022-11-19T08:58:17.714Z,54.78
2022-11-19T09:00:45.581Z,51.60
2022-11-19T09:03:12.320Z,52.58
2022-11-19T09:05:38.996Z,56.00
2022-11-19T09:08:07.230Z,50.95
2022-11-19T09:10:34.612Z,51.97
2022-11-19T09:13:01.936Z,54.78
2022-11-19T09:15:28.570Z,53.42
2022-11-19T09:17:57.738Z,50.15
2022-11-19T09:20:24.442Z,49.17
2022-11-19T09:22:54.260Z,55.70
2022-11-19T09:25:21.061Z,52.95
2022-11-19T09:27:47.815Z,54.92
2022-11-19T09:30:14.630Z,52.83
2022-11-19T09:32:41.359Z,53.45
2022-11-19T09:35:11.398Z,55.92
2022-11-19T09:40:05.166Z,52.83
2022-11-19T09:42:49.574Z,50.33
2022-11-19T09:45:29.025Z,51.25
2022-11-19T09:48:12.389Z,56.88
2022-11-19T09:51:16.377Z,51.13
2022-11-19T09:53:48.272Z,56.67
2022-11-19T09:56:17.964Z,56.85
2022-11-19T09:58:44.939Z,55.67
2022-11-19T10:01:15.886Z,52.85
2022-11-19T10:03:50.678Z,53.88
2022-11-19T10:06:30.009Z,58.95
2022-11-19T10:09:20.346Z,56.25
2022-11-19T10:11:49.815Z,52.00
2022-11-19T10:14:40.426Z,56.08
2022-11-19T10:17:44.914Z,54.22
2022-11-19T10:20:26.655Z,54.55
2022-11-19T10:23:01.757Z,54.38
2022-11-19T10:25:30.500Z,58.75
2022-11-19T10:28:19.220Z,58.20
2022-11-19T10:30:53.993Z,58.25
2022-11-19T10:33:40.816Z,51.33
2022-11-19T10:36:17.275Z,54.53
2022-11-19T10:38:57.649Z,55.58
2022-11-19T10:41:35.952Z,57.53
2022-11-19T10:44:34.384Z,53.35
2022-11-19T10:47:01.130Z,49.95
2022-11-19T10:49:27.760Z,50.90
2022-11-19T10:51:54.454Z,52.88
2022-11-19T10:54:27.582Z,49.60
2022-11-19T10:56:54.335Z,48.08
2022-11-19T10:59:25.787Z,48.47
2022-11-19T11:01:55.725Z,50.75
2022-11-19T11:07:02.092Z,51.03
2022-11-19T11:09:36.589Z,49.53
2022-11-19T11:12:11.350Z,52.03
2022-11-19T11:14:43.786Z,50.33
2022-11-19T11:17:30.981Z,48.65
2022-11-19T11:20:16.089Z,47.75
2022-11-19T11:22:43.365Z,50.28
2022-11-19T11:25:26.429Z,46.90
2022-11-19T11:28:14.358Z,46.95
2022-11-19T11:31:00.109Z,47.72
2022-11-19T11:33:32.949Z,53.70
2022-11-19T11:36:05.160Z,47.22
2022-11-19T11:38:34.735Z,52.20
2022-11-19T11:41:43.933Z,53.40
2022-11-19T11:44:14.406Z,50.17
2022-11-19T11:46:49.355Z,48.35
2022-11-19T11:49:42.091Z,48.13
2022-11-19T11:52:11.658Z,46.47
2022-11-19T11:54:39.151Z,48.00
2022-11-19T11:57:23.489Z,44.10
2022-11-19T11:59:50.154Z,45.35
2022-11-19T12:02:21.306Z,49.80
2022-11-19T12:04:50.029Z,49.63
2022-11-19T12:07:25.592Z,48.15
2022-11-19T12:10:00.607Z,51.38
2022-11-19T12:12:54.557Z,49.22
2022-11-19T12:15:23.174Z,48.47
2022-11-19T12:18:12.741Z,50.70
2022-11-19T12:21:10.210Z,50.03
2022-11-19T12:24:04.604Z,46.05
2022-11-19T12:26:48.139Z,47.88
2022-11-19T12:29:26.591Z,47.22
2022-11-19T12:32:22.049Z,44.10
2022-11-19T12:35:09.408Z,45.70
2022-11-19T12:37:48.891Z,44.92
2022-11-19T12:40:39.803Z,44.58
2022-11-19T12:43:58.815Z,42.80
2022-11-19T12:46:33.995Z,45.03
2022-11-19T12:49:20.053Z,42.17
2022-11-19T12:52:17.342Z,41.58
2022-11-19T12:54:48.375Z,46.95
2022-11-19T12:57:36.499Z,45.53
2022-11-19T13:00:10.612Z,44.40
2022-11-19T13:03:09.036Z,46.28
2022-11-19T13:05:50.931Z,45.10
2022-11-19T13:08:51.386Z,48.25
2022-11-19T13:11:31.232Z,44.10
2022-11-19T13:13:59.811Z,46.53
2022-11-19T13:16:27.042Z,42.80
2022-11-19T13:18:55.962Z,43.10
2022-11-19T13:21:37.943Z,44.35
2022-11-19T13:24:34.321Z,46.17
2022-11-19T13:27:05.250Z,40.85
2022-11-19T13:29:46.795Z,44.42
2022-11-19T13:32:16.353Z,46.22
2022-11-19T13:35:01.513Z,44.67
2022-11-19T13:37:58.548Z,43.58
2022-11-19T13:40:47.791Z,45.30
2022-11-19T13:43:34.919Z,44.20
2022-11-19T13:46:10.867Z,42.35
2022-11-19T13:48:40.640Z,45.10
2022-11-19T13:51:07.620Z,42.80
2022-11-19T13:53:39.639Z,47.55
2022-11-19T13:56:06.523Z,43.67
2022-11-19T13:58:35.198Z,49.53
2022-11-19T14:01:08.441Z,53.17
2022-11-19T14:03:57.450Z,46.67
2022-11-19T14:09:23.894Z,46.10
2022-11-19T14:12:11.963Z,44.88
2022-11-19T14:15:08.605Z,45.03
2022-11-19T14:17:37.884Z,45.33
2022-11-19T14:20:30.353Z,48.50
2022-11-19T14:22:57.080Z,44.28
2022-11-19T14:25:52.986Z,43.72
2022-11-19T14:28:51.277Z,49.67
2022-11-19T14:31:19.101Z,52.22
2022-11-19T14:33:48.801Z,49.15
2022-11-19T14:36:47.341Z,49.28
2022-11-19T14:39:22.782Z,42.30
2022-11-19T14:42:10.403Z,51.00
2022-11-19T14:44:37.029Z,50.15
2022-11-19T14:47:22.314Z,47.42
2022-11-19T14:49:55.487Z,46.65
2022-11-19T14:52:27.009Z,47.75
2022-11-19T14:55:22.738Z,45.45
2022-11-19T14:58:00.957Z,38.97
2022-11-19T15:00:34.503Z,43.38
2022-11-19T15:03:02.146Z,41.58
2022-11-19T15:05:41.999Z,41.65
2022-11-19T15:08:17.842Z,39.63
2022-11-19T15:11:07.300Z,38.67
2022-11-19T15:13:41.145Z,39.88
2022-11-19T15:16:10.914Z,35.40
2022-11-19T15:18:43.083Z,37.35
2022-11-19T15:21:26.149Z,41.03
2022-11-19T15:24:11.132Z,34.08
2022-11-19T15:27:00.122Z,32.33
2022-11-19T15:29:59.364Z,44.47
2022-11-19T15:32:41.132Z,37.20
2022-11-19T15:35:27.232Z,32.33
2022-11-19T15:37:59.015Z,36.80
2022-11-19T15:40:29.762Z,36.33
2022-11-19T15:43:19.588Z,38.47
2022-11-19T15:45:59.020Z,37.05
2022-11-19T15:48:41.826Z,34.05
2022-11-19T15:51:11.019Z,35.38
2022-11-19T15:53:37.666Z,34.78
2022-11-19T15:56:06.757Z,37.53
2022-11-19T15:58:39.279Z,34.63
2022-11-19T16:01:07.228Z,40.80
2022-11-19T16:03:33.897Z,35.70
2022-11-19T16:06:22.466Z,39.50
2022-11-19T16:11:20.989Z,38.97
2022-11-19T16:13:53.839Z,35.03
2022-11-19T16:16:24.194Z,37.08
2022-11-19T16:18:51.939Z,35.85
2022-11-19T16:21:23.635Z,37.40
2022-11-19T16:23:50.385Z,36.90
2022-11-19T16:26:17.091Z,34.92
2022-11-19T16:28:43.743Z,36.92
2022-11-19T16:31:11.938Z,37.03
2022-11-19T16:33:38.880Z,35.88
2022-11-19T16:36:15.602Z,35.65
2022-11-19T16:38:43.612Z,34.95
2022-11-19T16:41:12.295Z,34.90
2022-11-19T16:43:40.421Z,32.80
2022-11-19T16:46:07.065Z,32.97
2022-11-19T16:48:42.870Z,33.75
2022-11-19T16:51:31.839Z,32.38
2022-11-19T16:53:58.512Z,36.88
2022-11-19T16:56:25.281Z,33.83
2022-11-19T16:58:57.071Z,33.45
2022-11-19T17:01:28.115Z,33.38
2022-11-19T17:04:06.369Z,30.92
2022-11-19T17:06:34.057Z,38.72
2022-11-19T17:09:01.181Z,36.13
2022-11-19T17:11:47.683Z,39.03
2022-11-19T17:14:23.380Z,35.90
2022-11-19T17:16:51.701Z,31.70
2022-11-19T17:19:30.852Z,46.95
2022-11-19T17:21:59.899Z,29.13
2022-11-19T17:24:28.134Z,31.02
2022-11-19T17:26:55.446Z,32.03
2022-11-19T17:29:22.992Z,29.70
2022-11-19T17:32:00.286Z,30.92
2022-11-19T17:34:32.170Z,34.78
2022-11-19T17:36:59.190Z,29.40
2022-11-19T17:39:26.013Z,27.65
2022-11-19T17:41:56.616Z,30.38
2022-11-19T17:44:26.688Z,26.08
2022-11-19T17:46:53.368Z,26.98
2022-11-19T17:49:20.065Z,27.55
2022-11-19T17:51:46.885Z,29.63
2022-11-19T17:54:13.780Z,25.20
2022-11-19T17:56:40.705Z,26.88
2022-11-19T17:59:07.528Z,27.75
2022-11-19T18:01:34.441Z,27.52
2022-11-19T18:04:01.216Z,26.40
2022-11-19T18:06:38.415Z,30.58
2022-11-19T18:09:05.628Z,26.85
2022-11-19T18:11:37.441Z,27.05
2022-11-19T18:14:04.385Z,28.27
2022-11-19T18:16:32.298Z,24.73
2022-11-19T18:18:59.011Z,26.90
2022-11-19T18:21:25.703Z,28.45
2022-11-19T18:23:55.720Z,26.80
2022-11-19T18:26:22.818Z,25.17
2022-11-19T18:28:49.607Z,24.05
2022-11-19T18:31:21.526Z,24.10
2022-11-19T18:33:50.701Z,22.05
2022-11-19T18:36:17.800Z,21.73
2022-11-19T18:38:45.109Z,24.35
2022-11-19T18:41:12.431Z,24.77
2022-11-19T18:43:40.128Z,26.02
2022-11-19T18:46:08.124Z,22.60
2022-11-19T18:48:34.761Z,24.75
2022-11-19T18:51:01.421Z,23.55
2022-11-19T18:53:28.185Z,25.85
2022-11-19T18:55:54.997Z,24.15
2022-11-19T18:58:21.740Z,22.25
2022-11-19T19:00:49.183Z,22.50
2022-11-19T19:03:16.131Z,23.35
2022-11-19T19:05:43.237Z,26.48
2022-11-19T19:08:13.249Z,23.73
2022-11-19T19:13:08.039Z,24.45
2022-11-19T19:15:35.049Z,23.90
2022-11-19T19:18:07.483Z,25.35
2022-11-19T19:20:37.102Z,23.55
2022-11-19T19:23:03.951Z,24.67
2022-11-19T19:25:31.953Z,25.88
2022-11-19T19:27:59.091Z,24.60
2022-11-19T19:30:25.959Z,24.65
2022-11-19T19:32:54.234Z,25.65
2022-11-19T19:35:21.029Z,23.98
2022-11-19T19:37:48.975Z,25.15
2022-11-19T19:40:16.043Z,22.38
2022-11-19T19:42:42.941Z,22.98
2022-11-19T19:45:10.389Z,22.98
2022-11-19T19:47:37.047Z,23.65
2022-11-19T19:50:03.962Z,24.85
2022-11-19T19:52:30.788Z,23.85
2022-11-19T19:54:57.849Z,24.52
2022-11-19T19:57:28.413Z,23.70
2022-11-19T19:59:55.779Z,24.38
2022-11-19T20:02:22.817Z,25.85
2022-11-19T20:04:49.529Z,21.98
2022-11-19T20:07:54.750Z,25.15
2022-11-19T20:10:21.370Z,24.15
2022-11-19T20:12:48.010Z,21.88
2022-11-19T20:15:14.995Z,24.85
2022-11-19T20:17:41.741Z,24.90
2022-11-19T20:20:08.966Z,23.75
2022-11-19T20:22:35.879Z,26.45
2022-11-19T20:25:02.498Z,22.95
2022-11-19T20:27:29.198Z,23.98
2022-11-19T20:29:55.840Z,22.90
2022-11-19T20:32:22.531Z,21.65
2022-11-19T20:34:49.248Z,21.50
2022-11-19T20:37:15.965Z,23.08
2022-11-19T20:39:43.133Z,23.55
2022-11-19T20:42:09.837Z,23.35
2022-11-19T20:44:36.643Z,23.60
2022-11-19T20:47:03.772Z,21.58
2022-11-19T20:49:32.254Z,22.83
2022-11-19T20:51:58.945Z,25.75
2022-11-19T20:54:25.805Z,21.55
2022-11-19T20:56:53.166Z,24.67
2022-11-19T20:59:20.656Z,22.88
2022-11-19T21:01:50.648Z,22.70
2022-11-19T21:04:18.067Z,19.80
2022-11-19T21:06:44.868Z,24.00
2022-11-19T21:09:11.727Z,22.83
2022-11-19T21:11:38.401Z,23.58
2022-11-19T21:14:05.177Z,21.30
2022-11-19T21:16:31.837Z,22.35
2022-11-19T21:18:58.848Z,22.33
2022-11-19T21:21:25.759Z,23.67
2022-11-19T21:23:52.516Z,23.83
2022-11-19T21:26:21.089Z,23.48
2022-11-19T21:28:50.833Z,23.58
2022-11-19T21:31:18.438Z,23.20
2022-11-19T21:33:45.168Z,21.33
2022-11-19T21:36:12.016Z,20.83
2022-11-19T21:38:41.286Z,19.85
2022-11-19T21:41:07.991Z,20.40
2022-11-19T21:43:34.697Z,20.85
2022-11-19T21:46:01.331Z,22.73
2022-11-19T21:48:28.032Z,21.25
2022-11-19T21:50:54.696Z,21.10
2022-11-19T21:53:21.414Z,22.30
2022-11-19T21:55:48.188Z,24.42
2022-11-19T21:58:15.137Z,18.13
2022-11-19T22:00:41.947Z,18.92
2022-11-19T22:03:08.702Z,20.67
2022-11-19T22:05:35.400Z,19.70
2022-11-19T22:08:02.072Z,20.25
2022-11-19T22:10:28.985Z,21.02
2022-11-19T22:12:59.817Z,19.90
2022-11-19T22:15:26.811Z,19.48
2022-11-19T22:17:53.667Z,21.63
2022-11-19T22:20:20.381Z,22.52
2022-11-19T22:22:47.058Z,21.02
2022-11-19T22:25:13.791Z,20.90
2022-11-19T22:27:40.496Z,20.55
2022-11-19T22:30:07.723Z,19.58
2022-11-19T22:32:34.373Z,18.58
2022-11-19T22:35:01.025Z,19.20
2022-11-19T22:37:27.662Z,20.25
2022-11-19T22:39:54.308Z,22.20
2022-11-19T22:42:21.052Z,20.75
2022-11-19T22:44:47.643Z,22.70
2022-11-19T22:47:14.311Z,21.73
2022-11-19T22:49:41.005Z,20.00
2022-11-19T22:52:07.721Z,21.67
2022-11-19T22:54:40.169Z,20.80
2022-11-19T22:57:08.239Z,19.50
2022-11-19T22:59:34.877Z,18.10
2022-11-19T23:02:01.475Z,19.23
2022-11-19T23:04:28.205Z,20.15
2022-11-19T23:06:54.895Z,21.17
2022-11-19T23:09:21.756Z,20.30
2022-11-19T23:11:48.567Z,19.02
2022-11-19T23:14:16.126Z,21.33
2022-11-19T23:16:42.918Z,20.02
2022-11-19T23:19:10.415Z,20.23
2022-11-19T23:21:37.437Z,16.98
2022-11-19T23:24:04.388Z,20.58
2022-11-19T23:26:31.663Z,20.33
2022-11-19T23:28:58.387Z,20.13
2022-11-19T23:31:29.486Z,21.02
2022-11-19T23:33:59.248Z,18.30
2022-11-19T23:36:27.326Z,17.42
2022-11-19T23:38:53.986Z,20.85
2022-11-19T23:41:21.203Z,18.25
2022-11-19T23:43:47.960Z,18.65
2022-11-19T23:46:19.340Z,16.85
2022-11-19T23:48:46.793Z,18.65
2022-11-19T23:51:20.829Z,16.27
2022-11-19T23:53:47.584Z,17.60
2022-11-19T23:56:14.459Z,19.63
2022-11-19T23:58:41.165Z,19.38
